Comox Valley Airport (Canadian Forces Base Comox)

Airport
ICAO code: 
CYQQ
Summary
ICAO Region: 
NAM
Territory: 
Location: 
Comox, British Columbia,
Coordinates: 
Aerial View: 
49° 42' 38.999" N, 124° 53' 12.001" W
Airport BS: 
Bird Strike
Airport RE: 
Crosswind Landings
Metar
Observation
CYQQ 271200Z 18003KT 15SM -RA OVC009 05/04 A3009 RMK SF8 CIG VRB 6-12 SLP192
Station
Comox, B. C.
Date/Time
2021-11-27 12:00:00
Wind direction
180°
Wind speed
03 kts
Lowest cloud amount
overcast
Temperature
5°C
Dew point
4°C
Humidity
93%
Weather condition
light rain

Description

Comox Valley Airport is a military aerodrome located on the east side of Vancouver Island. It has a commercial terminal which serves the communities of Comox, Courtenay, Cumberland and the surrounding area.

Climatology

Temperate Marine climate/Oceanic climate (Köppen climate classification Cfb). Moderately cool summer and comparatively warm winter.

Runways

Designator Length Width Surface Rops
18/36 1524 61 ASP Yes/Yes
12/30 3048 61 PEM Yes/Yes
Airport map: 
Aerial View: 

SKYbrary Partners:

Safety knowledge contributed by: